Time;durP1;ratioP1;P1;durP2;ratioP2;P2;SDS_P1;SDS_P2;PMS_P1;PMS_P2;Temp;Humidity;BMP_temperature;BMP_pressure;BME280_temperature;BME280_humidity;BME280_pressure;Samples;Min_cycle;Max_cycle;Signal;HPM_P1;HPM_P2
2021/11/13 00:05:03;;;;;;;104.60;50.20;;;;;;;7.69;67.63;99359.98;212335;1327;141036;-59
2021/11/13 00:10:08;;;;;;;102.70;48.60;;;;;;;7.70;67.91;99358.38;212069;1324;139586;-59
2021/11/13 00:15:15;;;;;;;103.40;48.50;;;;;;;7.63;67.69;99364.17;212516;1329;139223;-59
2021/11/13 00:20:21;;;;;;;98.70;47.60;;;;;;;7.55;67.67;99362.91;212291;1328;139968;-59
2021/11/13 00:25:24;;;;;;;94.10;46.30;;;;;;;7.50;67.76;99354.65;212384;1329;139201;-59
2021/11/13 00:30:28;;;;;;;81.60;42.00;;;;;;;7.50;67.96;99349.18;211976;1325;139932;-59
2021/11/13 00:35:31;;;;;;;76.90;41.00;;;;;;;7.48;67.90;99345.94;211543;1334;140683;-61
2021/11/13 00:40:35;;;;;;;81.70;43.20;;;;;;;7.52;67.82;99332.16;212732;1323;140313;-58
2021/11/13 00:45:39;;;;;;;85.80;41.80;;;;;;;7.55;67.94;99332.73;212161;1326;138986;-58
2021/11/13 00:50:43;;;;;;;78.80;42.10;;;;;;;7.55;67.86;99331.31;212093;1325;141298;-59
2021/11/13 00:55:45;;;;;;;77.90;41.30;;;;;;;7.53;67.86;99326.09;212433;1325;139006;-57
2021/11/13 01:00:49;;;;;;;79.60;40.90;;;;;;;7.49;67.84;99329.66;211987;1330;139085;-56
2021/11/13 01:05:52;;;;;;;77.90;40.60;;;;;;;7.45;67.75;99326.67;212026;1330;140792;-57
2021/11/13 01:10:56;;;;;;;76.50;39.60;;;;;;;7.39;67.66;99330.28;212160;1325;139541;-58
2021/11/13 01:16:00;;;;;;;85.10;41.00;;;;;;;7.34;67.97;99326.96;211693;1332;139443;-59
2021/11/13 01:21:03;;;;;;;76.90;40.30;;;;;;;7.32;67.67;99324.18;212121;1328;140980;-56
2021/11/13 01:26:07;;;;;;;78.50;40.70;;;;;;;7.34;67.85;99315.30;212935;1325;141986;-58
2021/11/13 01:31:10;;;;;;;82.80;42.40;;;;;;;7.45;68.42;99303.69;211900;1327;139145;-60
2021/11/13 01:36:13;;;;;;;78.20;42.20;;;;;;;7.53;68.03;99291.11;211829;1325;139162;-59
2021/11/13 01:41:16;;;;;;;88.70;44.40;;;;;;;7.49;67.84;99283.39;212671;1326;138710;-58
2021/11/13 01:46:20;;;;;;;83.00;42.30;;;;;;;7.45;67.62;99285.00;211974;1331;140351;-59
2021/11/13 01:51:27;;;;;;;85.90;43.10;;;;;;;7.37;67.82;99280.92;212045;1325;139301;-60
2021/11/13 01:56:30;;;;;;;81.30;41.50;;;;;;;7.33;68.06;99276.17;212456;1329;139038;-58
2021/11/13 02:01:37;;;;;;;89.40;43.60;;;;;;;7.30;67.91;99277.54;211785;1331;139363;-56
2021/11/13 02:06:41;;;;;;;89.30;46.10;;;;;;;7.31;67.79;99277.64;212466;1325;139554;-58
2021/11/13 02:11:44;;;;;;;90.90;44.70;;;;;;;7.36;67.93;99274.27;211949;1325;140094;-57
2021/11/13 02:16:47;;;;;;;91.60;46.40;;;;;;;7.39;67.93;99270.25;211890;1332;140291;-56
2021/11/13 02:21:50;;;;;;;95.20;46.30;;;;;;;7.39;68.03;99258.45;212008;1329;139307;-56
2021/11/13 02:26:54;;;;;;;87.00;44.80;;;;;;;7.39;67.78;99255.42;211890;1331;139505;-55
2021/11/13 02:31:58;;;;;;;87.90;42.60;;;;;;;7.38;68.01;99251.41;212443;1328;140800;-56
2021/11/13 02:37:01;;;;;;;91.60;45.20;;;;;;;7.34;68.07;99251.95;212114;1323;140798;-57
2021/11/13 02:42:05;;;;;;;93.60;46.00;;;;;;;7.27;67.75;99247.66;212162;1331;139337;-62
2021/11/13 02:47:08;;;;;;;86.40;43.50;;;;;;;7.26;68.15;99242.95;211980;1328;141314;-64
2021/11/13 02:52:11;;;;;;;84.00;42.60;;;;;;;7.31;68.30;99237.25;212329;1329;139991;-60
2021/11/13 02:57:15;;;;;;;88.80;44.50;;;;;;;7.40;68.28;99236.66;211990;1325;139866;-61
2021/11/13 03:02:18;;;;;;;87.40;43.90;;;;;;;7.42;68.02;99226.39;212037;1326;139424;-55
2021/11/13 03:07:21;;;;;;;84.50;44.20;;;;;;;7.38;68.05;99217.70;212270;1325;139802;-57
2021/11/13 03:12:24;;;;;;;87.70;44.70;;;;;;;7.35;68.03;99218.90;212096;1326;176746;-58
2021/11/13 03:17:27;;;;;;;85.00;42.70;;;;;;;7.31;68.02;99221.89;212616;1325;139323;-57
2021/11/13 03:22:33;;;;;;;82.90;40.60;;;;;;;7.28;68.01;99219.94;212339;1325;140560;-59
2021/11/13 03:27:38;;;;;;;84.20;40.60;;;;;;;7.23;68.24;99222.59;211778;1324;139336;-58
2021/11/13 03:32:42;;;;;;;84.10;41.10;;;;;;;7.17;67.73;99219.04;211681;1330;138663;-58
2021/11/13 03:37:46;;;;;;;82.20;40.60;;;;;;;7.14;68.07;99214.23;211775;1331;140312;-60
2021/11/13 03:42:50;;;;;;;88.10;44.10;;;;;;;7.15;67.84;99214.70;212085;1325;139728;-59
2021/11/13 03:47:53;;;;;;;83.60;42.00;;;;;;;7.16;67.88;99215.73;211793;1329;140183;-58
2021/11/13 03:52:57;;;;;;;82.00;41.50;;;;;;;7.16;68.11;99217.45;212292;1328;139952;-58
2021/11/13 03:58:00;;;;;;;83.70;41.20;;;;;;;7.17;68.20;99212.66;212056;1331;140314;-61
2021/11/13 04:03:04;;;;;;;84.70;40.40;;;;;;;7.17;68.34;99213.20;212008;1331;139674;-61
2021/11/13 04:08:07;;;;;;;92.90;43.70;;;;;;;7.14;68.37;99212.27;211666;1325;139671;-58
2021/11/13 04:13:11;;;;;;;86.80;40.70;;;;;;;7.12;68.17;99215.73;212370;1325;139430;-56
2021/11/13 04:18:14;;;;;;;94.30;43.50;;;;;;;7.07;68.43;99214.52;212916;1328;139057;-59
2021/11/13 04:23:20;;;;;;;;;;;;;;;7.06;68.01;99216.49;211856;1332;140889;-60
2021/11/13 04:28:23;;;;;;;96.70;44.20;;;;;;;7.05;68.48;99209.82;211867;1331;125136;-59
2021/11/13 04:33:27;;;;;;;95.00;43.10;;;;;;;7.09;68.58;99201.57;211817;1331;140418;-59
2021/11/13 04:38:32;;;;;;;91.30;43.00;;;;;;;7.07;68.65;99200.78;212348;1326;140178;-56
2021/11/13 04:43:36;;;;;;;86.90;43.10;;;;;;;7.04;68.49;99197.56;212124;1329;139199;-59
2021/11/13 04:48:39;;;;;;;94.40;42.50;;;;;;;7.01;68.63;99199.80;212159;1325;140687;-56
2021/11/13 04:53:43;;;;;;;92.00;40.60;;;;;;;6.98;68.73;99198.01;211946;1331;139730;-58
2021/11/13 04:58:46;;;;;;;103.70;42.70;;;;;;;6.97;68.76;99210.38;212155;1325;141443;-58
2021/11/13 05:03:49;;;;;;;94.20;40.10;;;;;;;6.98;68.82;99208.77;212048;1325;139883;-60
2021/11/13 05:08:52;;;;;;;83.80;37.40;;;;;;;7.01;68.71;99209.13;211997;1331;139536;-59
2021/11/13 05:13:55;;;;;;;85.50;35.90;;;;;;;7.04;68.48;99205.66;211818;1328;139970;-60
2021/11/13 05:18:58;;;;;;;74.10;34.10;;;;;;;7.02;68.62;99212.61;212130;1327;139477;-58
2021/11/13 05:24:01;;;;;;;77.00;33.70;;;;;;;6.99;68.55;99208.37;211810;1332;141362;-61
2021/11/13 05:29:04;;;;;;;75.30;34.50;;;;;;;6.95;68.52;99203.25;212634;1331;139527;-60
2021/11/13 05:34:07;;;;;;;78.80;34.90;;;;;;;6.91;68.61;99198.67;211992;1331;139098;-62
2021/11/13 05:39:10;;;;;;;80.80;35.40;;;;;;;6.87;68.47;99196.54;212530;1328;139429;-59
2021/11/13 05:44:14;;;;;;;72.40;32.70;;;;;;;6.83;68.30;99203.40;211722;1325;139658;-59
2021/11/13 05:49:17;;;;;;;73.40;33.90;;;;;;;6.82;68.47;99204.17;211890;1325;140064;-58
2021/11/13 05:54:21;;;;;;;67.90;32.40;;;;;;;6.82;68.44;99201.16;212206;1330;139835;-59
2021/11/13 05:59:24;;;;;;;71.30;32.40;;;;;;;6.83;68.53;99211.89;211703;1330;139288;-60
2021/11/13 06:04:27;;;;;;;69.80;33.30;;;;;;;6.81;68.61;99210.92;211762;1326;139011;-58
2021/11/13 06:09:35;;;;;;;68.10;32.20;;;;;;;6.76;68.45;99213.41;211834;1330;141349;-59
2021/11/13 06:14:38;;;;;;;65.70;31.30;;;;;;;6.72;68.42;99220.33;211937;1330;141171;-60
2021/11/13 06:19:43;;;;;;;71.70;32.80;;;;;;;6.65;68.40;99228.73;211718;1331;139344;-60
2021/11/13 06:24:46;;;;;;;66.70;32.30;;;;;;;6.58;68.57;99233.77;212010;1331;139191;-58
2021/11/13 06:29:49;;;;;;;73.20;32.80;;;;;;;6.54;68.51;99241.18;212335;1331;139081;-57
2021/11/13 06:34:56;;;;;;;71.20;32.50;;;;;;;6.53;68.32;99241.77;212109;1331;139638;-60
2021/11/13 06:39:59;;;;;;;65.50;32.00;;;;;;;6.53;68.66;99244.38;211488;1332;139688;-60
2021/11/13 06:45:08;;;;;;;69.80;32.80;;;;;;;6.55;68.73;99245.02;212324;1327;163795;-62
2021/11/13 06:50:12;;;;;;;75.20;34.10;;;;;;;6.56;68.92;99253.96;212248;1331;143653;-58
2021/11/13 06:55:16;;;;;;;70.90;33.70;;;;;;;6.54;68.83;99261.95;212073;1331;140644;-58
2021/11/13 07:00:19;;;;;;;71.20;33.30;;;;;;;6.54;68.83;99265.83;211948;1331;139471;-59
2021/11/13 07:05:22;;;;;;;74.70;34.90;;;;;;;6.50;68.96;99266.19;211884;1325;138851;-60
2021/11/13 07:10:27;;;;;;;72.10;34.30;;;;;;;6.46;68.96;99260.91;212222;1330;139494;-56
2021/11/13 07:15:31;;;;;;;69.60;32.70;;;;;;;6.46;69.04;99257.20;212026;1330;139238;-57
2021/11/13 07:20:34;;;;;;;76.80;35.60;;;;;;;6.51;69.08;99256.09;212231;1328;139894;-57
2021/11/13 07:25:37;;;;;;;72.40;35.00;;;;;;;6.57;69.08;99257.59;212091;1331;140302;-60
2021/11/13 07:30:42;;;;;;;75.40;34.40;;;;;;;6.60;69.18;99258.88;211859;1326;139650;-59
2021/11/13 07:35:45;;;;;;;70.70;32.90;;;;;;;6.65;69.25;99254.09;211953;1324;140188;-59
2021/11/13 07:40:48;;;;;;;77.00;31.90;;;;;;;6.73;69.24;99249.55;211865;1329;139554;-57
2021/11/13 07:45:51;;;;;;;75.50;33.70;;;;;;;6.79;68.98;99243.81;212017;1325;139131;-58
2021/11/13 07:50:54;;;;;;;72.90;33.70;;;;;;;6.72;68.96;99246.20;212060;1329;139573;-60
2021/11/13 07:55:57;;;;;;;76.40;35.10;;;;;;;6.69;68.92;99243.37;212613;1324;139591;-60
2021/11/13 08:01:01;;;;;;;76.60;34.40;;;;;;;6.74;69.02;99238.21;211905;1325;139745;-60
2021/11/13 08:06:05;;;;;;;81.10;35.80;;;;;;;6.79;69.09;99240.09;212268;1327;139677;-59
2021/11/13 08:11:08;;;;;;;119.70;60.90;;;;;;;6.91;69.27;99239.55;213011;1329;141477;-58
2021/11/13 08:16:11;;;;;;;83.20;36.10;;;;;;;7.09;69.49;99235.23;212195;1323;139685;-59
2021/11/13 08:21:15;;;;;;;585.50;400.10;;;;;;;7.14;68.99;99227.24;211991;1328;141001;-59
2021/11/13 08:26:19;;;;;;;85.50;40.90;;;;;;;7.18;68.98;99232.38;212020;1325;141375;-58
2021/11/13 08:31:22;;;;;;;74.70;35.90;;;;;;;7.26;69.29;99238.02;211789;1329;140338;-57
2021/11/13 08:36:26;;;;;;;73.00;34.80;;;;;;;7.31;68.73;99236.19;212677;1323;139446;-60
2021/11/13 08:41:29;;;;;;;74.60;34.10;;;;;;;7.20;68.37;99228.95;212223;1324;139923;-60
2021/11/13 08:46:32;;;;;;;71.70;34.70;;;;;;;7.07;68.35;99231.29;211940;1329;138947;-60
2021/11/13 08:51:35;;;;;;;89.90;40.20;;;;;;;7.02;68.39;99238.75;211703;1323;139615;-60
2021/11/13 08:56:39;;;;;;;334.40;180.50;;;;;;;7.02;68.45;99238.56;211839;1329;140388;-60
2021/11/13 09:01:45;;;;;;;293.30;177.20;;;;;;;7.12;68.80;99238.98;211840;1329;142244;-60
2021/11/13 09:06:48;;;;;;;79.40;37.90;;;;;;;7.24;69.21;99237.23;212136;1324;140460;-60
2021/11/13 09:11:52;;;;;;;79.60;37.20;;;;;;;7.32;68.96;99244.98;212000;1324;139630;-57
2021/11/13 09:16:55;;;;;;;77.00;35.40;;;;;;;7.29;68.51;99243.34;211740;1331;140241;-57
2021/11/13 09:21:58;;;;;;;360.90;235.80;;;;;;;7.19;68.60;99242.06;212393;1322;138548;-59
2021/11/13 09:27:01;;;;;;;76.10;34.00;;;;;;;7.20;68.78;99239.69;212569;1325;140187;-59
2021/11/13 09:32:05;;;;;;;78.00;37.00;;;;;;;7.21;68.55;99239.64;211647;1329;140511;-59
2021/11/13 09:37:08;;;;;;;83.50;37.80;;;;;;;7.20;68.43;99230.35;212187;1327;141651;-59
2021/11/13 09:42:11;;;;;;;94.10;41.40;;;;;;;7.17;68.53;99230.84;212085;1328;140691;-59
2021/11/13 09:47:17;;;;;;;94.00;41.40;;;;;;;7.19;68.67;99222.45;213482;1324;140252;-58
2021/11/13 09:52:20;;;;;;;164.80;82.80;;;;;;;7.22;68.64;99219.30;212705;1322;139361;-60
2021/11/13 09:57:25;;;;;;;103.80;43.80;;;;;;;7.42;69.52;99221.78;211477;1327;141157;-58
2021/11/13 10:02:28;;;;;;;98.50;42.80;;;;;;;7.63;69.03;99210.36;212626;1324;139420;-58
2021/11/13 10:07:33;;;;;;;98.50;42.50;;;;;;;7.54;68.50;99205.33;212016;1327;140353;-57
2021/11/13 10:12:42;;;;;;;89.70;39.40;;;;;;;7.40;68.23;99200.30;211958;1330;140874;-61
2021/11/13 10:18:03;;;;;;;89.60;39.80;;;;;;;7.32;68.13;99199.96;211605;1331;140593;-59
2021/11/13 10:23:06;;;;;;;87.00;37.60;;;;;;;7.32;68.51;99187.59;211575;1327;140252;-60
2021/11/13 10:28:14;;;;;;;79.10;36.70;;;;;;;7.24;68.32;99188.34;211580;1332;140324;-57
2021/11/13 10:33:32;;;;;;;87.60;37.80;;;;;;;7.18;68.17;99180.30;212118;1323;139919;-58
2021/11/13 10:38:37;;;;;;;85.30;37.70;;;;;;;7.17;68.28;99176.68;211948;1324;139227;-59
2021/11/13 10:43:42;;;;;;;78.00;36.80;;;;;;;7.17;68.24;99171.39;211726;1332;139068;-59
2021/11/13 10:48:50;;;;;;;78.70;36.10;;;;;;;7.10;68.28;99181.38;211884;1331;139256;-58
2021/11/13 10:53:53;;;;;;;75.20;36.20;;;;;;;7.01;68.09;99172.09;212400;1325;139761;-56
2021/11/13 10:59:03;;;;;;;76.70;37.40;;;;;;;6.99;68.27;99166.02;211822;1328;140580;-59
2021/11/13 11:04:13;;;;;;;79.00;37.00;;;;;;;6.99;68.21;99161.78;212358;1325;139785;-59
2021/11/13 11:09:23;;;;;;;75.60;34.80;;;;;;;6.97;68.02;99157.45;211976;1325;139343;-58
2021/11/13 11:14:30;;;;;;;77.00;38.10;;;;;;;6.97;68.19;99160.45;212149;1326;147058;-60
2021/11/13 11:19:36;;;;;;;80.60;35.50;;;;;;;7.01;68.36;99158.19;211894;1325;139063;-58
2021/11/13 11:24:48;;;;;;;77.10;36.10;;;;;;;7.00;68.38;99155.55;211637;1334;141070;-58
2021/11/13 11:30:01;;;;;;;72.70;36.50;;;;;;;7.03;68.28;99147.69;211473;1331;141589;-60
2021/11/13 11:35:12;;;;;;;78.70;36.00;;;;;;;7.00;68.23;99145.36;211954;1331;139131;-59
2021/11/13 11:40:28;;;;;;;73.10;35.40;;;;;;;6.99;68.29;99139.23;211923;1325;138899;-59
2021/11/13 11:45:35;;;;;;;73.00;35.10;;;;;;;7.02;68.37;99137.83;211587;1331;139727;-59
2021/11/13 11:50:40;;;;;;;66.00;33.20;;;;;;;7.04;68.12;99131.74;211512;1331;139345;-60
2021/11/13 11:55:45;;;;;;;71.10;34.90;;;;;;;7.08;68.23;99135.26;212188;1325;139480;-59
2021/11/13 12:00:50;;;;;;;;;;;;;;;7.11;68.29;99135.65;211681;1331;139077;-58
2021/11/13 12:05:55;;;;;;;59.90;30.50;;;;;;;7.09;67.98;99127.95;211597;1331;125856;-59
2021/11/13 12:11:25;;;;;;;68.40;32.90;;;;;;;7.07;68.16;99122.42;211657;1334;139299;-60
2021/11/13 12:16:28;;;;;;;65.70;32.60;;;;;;;7.09;68.14;99116.49;212672;1324;139350;-58
2021/11/13 12:21:32;;;;;;;63.40;33.10;;;;;;;7.09;67.87;99120.58;212415;1325;139423;-58
2021/11/13 12:26:38;;;;;;;74.20;34.20;;;;;;;7.06;68.01;99120.34;212099;1325;139241;-57
2021/11/13 12:31:45;;;;;;;;;;;;;;;7.05;67.98;99117.23;212146;1331;139370;-59
2021/11/13 12:37:07;;;;;;;66.10;33.60;;;;;;;7.06;67.96;99114.38;212665;1325;125919;-58
2021/11/13 12:42:14;;;;;;;72.10;35.40;;;;;;;7.09;68.08;99110.70;212532;1328;139924;-59
2021/11/13 12:47:21;;;;;;;76.60;36.50;;;;;;;7.12;68.16;99110.56;212623;1325;139256;-57
2021/11/13 12:52:33;;;;;;;77.10;36.50;;;;;;;7.17;68.08;99097.84;212176;1325;140029;-59
2021/11/13 12:57:57;;;;;;;76.80;38.60;;;;;;;7.14;67.96;99101.48;211736;1329;139769;-57
2021/11/13 13:03:04;;;;;;;74.40;36.20;;;;;;;7.14;67.94;99101.30;212254;1329;140980;-57
2021/11/13 13:08:08;;;;;;;68.90;34.00;;;;;;;7.14;68.10;99091.57;212499;1325;139526;-59
2021/11/13 13:13:16;;;;;;;73.30;35.90;;;;;;;7.15;67.95;99085.05;211796;1327;139553;-58
2021/11/13 13:18:19;;;;;;;72.40;35.40;;;;;;;7.12;68.16;99075.81;211919;1324;139363;-59
2021/11/13 13:23:26;;;;;;;86.80;38.80;;;;;;;7.14;68.09;99070.58;212319;1325;140195;-57
2021/11/13 13:28:31;;;;;;;85.20;40.10;;;;;;;7.16;68.09;99073.33;212200;1330;139542;-58
2021/11/13 13:33:36;;;;;;;82.20;40.30;;;;;;;7.17;68.10;99077.52;211599;1325;139985;-57
2021/11/13 13:38:39;;;;;;;85.50;39.90;;;;;;;7.15;68.06;99073.17;212688;1325;140080;-58
2021/11/13 13:43:45;;;;;;;85.90;40.20;;;;;;;7.13;68.14;99076.83;211633;1331;139985;-58
2021/11/13 13:48:58;;;;;;;84.90;40.20;;;;;;;7.09;67.95;99085.66;211781;1325;139015;-57
2021/11/13 13:54:06;;;;;;;79.20;38.50;;;;;;;7.03;67.96;99078.89;212544;1329;138987;-57
2021/11/13 13:59:21;;;;;;;74.80;38.80;;;;;;;6.97;67.98;99072.81;211923;1331;138933;-56
2021/11/13 14:04:27;;;;;;;75.50;37.50;;;;;;;6.96;68.37;99080.61;212051;1325;139565;-59
2021/11/13 14:09:30;;;;;;;69.60;35.00;;;;;;;6.96;67.94;99085.89;211611;1324;140102;-57
2021/11/13 14:14:33;;;;;;;73.10;37.00;;;;;;;6.98;68.27;99087.59;211955;1325;139998;-58
2021/11/13 14:19:41;;;;;;;73.60;37.30;;;;;;;6.99;68.16;99085.42;211992;1328;140039;-59
2021/11/13 14:24:44;;;;;;;76.70;39.40;;;;;;;7.01;68.13;99088.11;211537;1331;138756;-58
2021/11/13 14:29:54;;;;;;;80.60;40.20;;;;;;;6.99;67.78;99094.41;211641;1330;140959;-58
2021/11/13 14:35:12;;;;;;;80.70;39.50;;;;;;;6.88;67.74;99096.32;211750;1334;140110;-58
2021/11/13 14:40:16;;;;;;;80.50;41.30;;;;;;;6.78;68.21;99096.63;212098;1325;140036;-58
2021/11/13 14:45:32;;;;;;;85.20;42.10;;;;;;;6.77;68.23;99091.87;212104;1324;139239;-57
2021/11/13 14:50:35;;;;;;;84.50;38.70;;;;;;;6.79;68.23;99102.05;212035;1325;138892;-57
2021/11/13 14:55:39;;;;;;;75.80;38.10;;;;;;;6.80;68.08;99102.34;212264;1325;139915;-59
2021/11/13 15:00:53;;;;;;;80.60;39.50;;;;;;;6.87;68.52;99100.44;212119;1325;139247;-58
2021/11/13 15:06:00;;;;;;;88.40;45.70;;;;;;;6.92;68.28;99099.33;211548;1331;140104;-58
2021/11/13 15:11:05;;;;;;;76.40;40.50;;;;;;;6.95;68.29;99097.78;212493;1325;140097;-59
2021/11/13 15:16:23;;;;;;;78.80;40.50;;;;;;;6.95;68.32;99094.43;211995;1323;140113;-59
2021/11/13 15:21:28;;;;;;;74.80;38.90;;;;;;;6.91;68.26;99091.95;212117;1327;139143;-59
2021/11/13 15:26:34;;;;;;;68.60;38.60;;;;;;;6.84;68.35;99098.99;212086;1325;139807;-58
2021/11/13 15:31:42;;;;;;;72.00;38.70;;;;;;;6.76;68.01;99116.09;212310;1325;139179;-58
2021/11/13 15:37:02;;;;;;;78.20;39.90;;;;;;;6.70;68.09;99115.33;211634;1323;138780;-60
2021/11/13 15:42:17;;;;;;;81.50;41.20;;;;;;;6.69;68.29;99121.73;212205;1325;141501;-57
2021/11/13 15:47:22;;;;;;;80.00;41.60;;;;;;;6.74;68.44;99124.14;212250;1331;140027;-60
2021/11/13 15:52:47;;;;;;;;;;;;;;;6.74;68.15;99127.50;212467;1325;139836;-58
2021/11/13 15:57:50;;;;;;;82.00;40.90;;;;;;;6.73;68.50;99132.27;211736;1331;125473;-58
2021/11/13 16:02:53;;;;;;;80.00;39.10;;;;;;;6.70;68.20;99137.17;211565;1332;142935;-59
2021/11/13 16:07:57;;;;;;;77.60;40.00;;;;;;;6.63;68.39;99144.17;211826;1325;139299;-59
2021/11/13 16:13:03;;;;;;;78.40;40.70;;;;;;;6.59;68.41;99147.35;211810;1325;140334;-58
2021/11/13 16:18:06;;;;;;;;;;;;;;;6.54;68.51;99150.55;211939;1332;139038;-59
2021/11/13 16:23:09;;;;;;;89.50;42.70;;;;;;;6.50;68.43;99150.40;212366;1325;125620;-57
2021/11/13 16:28:13;;;;;;;93.00;45.70;;;;;;;6.53;68.54;99152.56;212135;1325;140162;-58
2021/11/13 16:33:17;;;;;;;93.00;44.50;;;;;;;6.55;68.58;99158.11;211905;1323;141463;-57
2021/11/13 16:38:27;;;;;;;95.40;43.90;;;;;;;6.58;68.56;99164.16;211820;1328;139446;-59
2021/11/13 16:43:36;;;;;;;84.20;42.00;;;;;;;6.58;68.53;99162.56;212219;1328;139677;-57
2021/11/13 16:48:41;;;;;;;89.10;40.60;;;;;;;6.52;68.42;99158.77;211896;1329;139254;-60
2021/11/13 16:53:46;;;;;;;83.30;40.30;;;;;;;6.49;68.92;99161.89;211751;1329;139407;-57
2021/11/13 16:58:50;;;;;;;81.20;38.30;;;;;;;6.48;68.69;99163.70;212387;1325;139427;-60
2021/11/13 17:03:55;;;;;;;84.20;40.10;;;;;;;6.49;68.77;99162.27;211925;1330;139556;-58
2021/11/13 17:08:59;;;;;;;78.80;35.90;;;;;;;6.52;68.95;99169.16;211424;1331;139668;-59
2021/11/13 17:14:03;;;;;;;80.10;35.90;;;;;;;6.55;68.71;99172.40;212975;1324;139872;-58
2021/11/13 17:19:12;;;;;;;77.70;36.60;;;;;;;6.56;68.97;99177.83;212194;1324;139378;-57
2021/11/13 17:24:15;;;;;;;77.00;37.60;;;;;;;6.55;68.71;99185.41;213006;1325;141169;-57
2021/11/13 17:29:18;;;;;;;75.40;35.60;;;;;;;6.52;68.81;99182.38;212060;1325;139754;-60
2021/11/13 17:34:22;;;;;;;77.30;35.70;;;;;;;6.48;69.04;99185.73;211961;1329;139146;-59
2021/11/13 17:39:39;;;;;;;250.20;178.30;;;;;;;6.43;69.39;99197.92;211680;1329;139185;-61
2021/11/13 17:44:43;;;;;;;88.70;42.70;;;;;;;6.63;70.07;99194.25;212372;1325;139486;-59
2021/11/13 17:49:46;;;;;;;75.90;37.90;;;;;;;6.72;69.52;99184.88;211722;1330;140478;-60
2021/11/13 17:54:49;;;;;;;86.90;42.00;;;;;;;6.72;69.20;99186.63;212287;1324;139969;-60
2021/11/13 17:59:52;;;;;;;78.50;37.00;;;;;;;6.71;69.28;99187.72;211767;1331;139033;-58
2021/11/13 18:04:57;;;;;;;70.10;34.80;;;;;;;6.66;68.86;99196.41;212422;1325;138448;-60
2021/11/13 18:10:00;;;;;;;72.20;36.20;;;;;;;6.59;68.81;99192.33;211327;1334;139416;-59
2021/11/13 18:15:07;;;;;;;75.30;36.20;;;;;;;6.54;68.86;99188.84;212093;1325;139304;-59
2021/11/13 18:20:12;;;;;;;77.10;36.50;;;;;;;6.56;69.12;99191.20;212326;1325;139860;-59
2021/11/13 18:25:22;;;;;;;78.90;37.40;;;;;;;6.54;69.08;99185.30;212845;1325;140194;-59
2021/11/13 18:30:28;;;;;;;80.20;38.00;;;;;;;6.55;69.39;99186.83;211906;1325;140076;-61
2021/11/13 18:35:36;;;;;;;86.40;41.30;;;;;;;6.68;69.53;99182.75;212140;1328;140133;-61
2021/11/13 18:40:43;;;;;;;82.50;38.70;;;;;;;6.82;69.10;99186.71;211571;1331;139530;-61
2021/11/13 18:45:47;;;;;;;77.10;37.60;;;;;;;6.84;69.23;99189.25;211689;1324;139862;-61
2021/11/13 18:50:55;;;;;;;83.90;38.50;;;;;;;6.94;69.23;99193.94;211531;1327;140109;-62
2021/11/13 18:55:58;;;;;;;86.30;38.70;;;;;;;6.90;68.84;99194.09;211582;1332;139490;-61
2021/11/13 19:01:01;;;;;;;79.10;35.40;;;;;;;6.84;68.96;99194.20;212202;1324;139191;-60
2021/11/13 19:06:05;;;;;;;87.60;38.00;;;;;;;6.73;69.11;99202.27;212272;1325;139206;-61
2021/11/13 19:11:09;;;;;;;84.80;39.50;;;;;;;6.68;68.85;99198.28;212406;1324;139499;-59
2021/11/13 19:16:12;;;;;;;98.30;43.60;;;;;;;6.68;68.89;99202.15;211834;1326;140678;-60
2021/11/13 19:21:15;;;;;;;101.30;42.90;;;;;;;6.67;69.15;99198.48;211938;1331;140202;-61
2021/11/13 19:26:22;;;;;;;112.80;45.30;;;;;;;6.63;68.99;99200.79;212402;1324;139884;-65
2021/11/13 19:31:25;;;;;;;114.10;46.60;;;;;;;6.53;69.15;99208.60;211725;1328;139418;-61
2021/11/13 19:36:28;;;;;;;122.60;49.50;;;;;;;6.45;69.22;99207.38;211627;1332;139086;-62
2021/11/13 19:41:32;;;;;;;141.40;57.50;;;;;;;6.40;69.33;99213.74;211837;1334;140114;-61
2021/11/13 19:46:35;;;;;;;127.40;53.90;;;;;;;6.50;70.00;99211.20;212466;1325;139951;-63
2021/11/13 19:51:39;;;;;;;121.10;48.40;;;;;;;6.57;69.78;99212.64;211794;1328;140173;-61
2021/11/13 19:56:42;;;;;;;109.30;47.00;;;;;;;6.55;69.60;99213.09;211594;1331;139088;-60
2021/11/13 20:01:46;;;;;;;114.30;47.60;;;;;;;6.47;69.67;99211.34;211872;1329;139627;-60
2021/11/13 20:06:49;;;;;;;103.60;46.40;;;;;;;6.42;69.67;99212.78;212276;1328;139330;-60
2021/11/13 20:11:52;;;;;;;112.90;50.80;;;;;;;6.38;69.59;99220.88;212236;1324;139959;-58
2021/11/13 20:16:55;;;;;;;113.10;49.30;;;;;;;6.37;69.47;99226.02;211977;1325;139835;-59
2021/11/13 20:21:58;;;;;;;116.10;52.70;;;;;;;6.39;69.56;99232.61;212742;1325;140639;-60
2021/11/13 20:27:02;;;;;;;108.70;50.20;;;;;;;6.41;69.57;99229.39;212544;1327;139143;-60
2021/11/13 20:32:05;;;;;;;106.90;48.70;;;;;;;6.43;69.49;99233.73;212184;1325;139832;-59
2021/11/13 20:37:11;;;;;;;112.50;52.20;;;;;;;6.43;69.54;99234.08;212002;1326;140295;-63
2021/11/13 20:42:18;;;;;;;109.30;50.00;;;;;;;6.44;69.50;99241.95;211987;1328;139252;-60
2021/11/13 20:47:23;;;;;;;111.70;52.20;;;;;;;6.43;69.84;99245.88;212037;1325;140659;-61
2021/11/13 20:52:26;;;;;;;110.40;50.60;;;;;;;6.46;69.64;99246.43;212000;1324;140470;-60
2021/11/13 20:57:29;;;;;;;101.90;51.10;;;;;;;6.50;69.76;99251.56;212182;1325;139620;-63
2021/11/13 21:02:33;;;;;;;103.50;52.20;;;;;;;6.53;69.78;99249.32;211742;1331;139765;-60
2021/11/13 21:07:36;;;;;;;103.60;50.70;;;;;;;6.52;69.47;99248.31;212217;1328;139244;-60
2021/11/13 21:12:40;;;;;;;99.90;51.10;;;;;;;6.51;69.68;99257.86;211458;1330;139804;-60
2021/11/13 21:17:43;;;;;;;98.40;51.30;;;;;;;6.45;69.38;99264.09;211830;1332;139349;-60
2021/11/13 21:22:47;;;;;;;97.50;48.00;;;;;;;6.36;69.27;99260.41;211952;1326;138976;-59
2021/11/13 21:27:50;;;;;;;99.00;50.90;;;;;;;6.35;69.26;99259.58;211536;1329;139592;-64
2021/11/13 21:32:54;;;;;;;92.40;48.30;;;;;;;6.37;69.17;99260.56;211690;1331;139605;-58
2021/11/13 21:37:59;;;;;;;79.90;42.60;;;;;;;6.33;69.21;99265.30;211762;1325;138683;-61
2021/11/13 21:43:03;;;;;;;89.00;47.40;;;;;;;6.22;68.78;99269.84;212606;1327;139242;-61
2021/11/13 21:48:07;;;;;;;88.20;45.60;;;;;;;6.15;68.94;99275.76;212167;1325;139345;-60
2021/11/13 21:53:11;;;;;;;97.80;50.60;;;;;;;6.08;69.21;99280.95;211882;1327;139199;-61
2021/11/13 21:58:14;;;;;;;93.40;49.10;;;;;;;6.03;69.00;99283.95;211895;1331;140053;-61
2021/11/13 22:03:18;;;;;;;91.20;48.20;;;;;;;6.09;69.19;99286.90;212417;1324;139929;-61
2021/11/13 22:08:21;;;;;;;100.30;51.30;;;;;;;6.13;69.33;99287.42;211938;1331;139345;-61
2021/11/13 22:13:24;;;;;;;90.00;48.00;;;;;;;6.17;69.21;99293.09;211987;1331;139314;-61
2021/11/13 22:18:28;;;;;;;93.20;48.60;;;;;;;6.15;69.03;99301.61;211973;1322;139645;-62
2021/11/13 22:23:32;;;;;;;91.10;47.30;;;;;;;6.12;68.88;99305.77;212302;1330;139088;-58
2021/11/13 22:28:36;;;;;;;90.80;48.10;;;;;;;6.06;68.92;99305.67;212087;1331;139310;-61
2021/11/13 22:33:39;;;;;;;84.90;45.00;;;;;;;5.97;68.65;99306.92;211670;1331;139132;-63
2021/11/13 22:38:42;;;;;;;97.80;49.90;;;;;;;5.91;68.94;99316.63;211701;1333;140044;-62
2021/11/13 22:43:45;;;;;;;94.00;47.90;;;;;;;5.87;69.01;99319.92;212077;1331;140907;-62
2021/11/13 22:48:48;;;;;;;85.40;46.00;;;;;;;5.84;68.95;99325.19;211913;1331;139587;-63
2021/11/13 22:53:52;;;;;;;86.70;45.00;;;;;;;5.80;68.88;99326.22;211773;1331;140799;-63
2021/11/13 22:58:55;;;;;;;82.80;42.90;;;;;;;5.74;69.01;99327.33;212045;1327;139551;-61
2021/11/13 23:04:03;;;;;;;73.40;37.80;;;;;;;5.74;69.38;99331.19;211897;1330;139515;-62
2021/11/13 23:09:07;;;;;;;74.50;39.10;;;;;;;5.72;68.93;99327.54;212038;1325;139078;-61